Time;durP1;ratioP1;P1;durP2;ratioP2;P2;SDS_P1;SDS_P2;PMS_P1;PMS_P2;Temp;Humidity;BMP_temperature;BMP_pressure;BME280_temperature;BME280_humidity;BME280_pressure;Samples;Min_cycle;Max_cycle;Signal;HPM_P1;HPM_P2
2023/07/26 00:00:24;;;;;;;8.35;6.60;;;12.70;99.90;;;;;;5066274;28;20037;-73
2023/07/26 00:02:49;;;;;;;6.88;5.25;;;12.70;99.90;;;;;;5066972;28;20483;-73
2023/07/26 00:05:15;;;;;;;7.45;5.47;;;12.70;99.90;;;;;;5060166;28;20048;-74
2023/07/26 00:07:41;;;;;;;12.70;7.47;;;12.70;99.90;;;;;;5043101;28;20467;-74
2023/07/26 00:10:10;;;;;;;7.88;6.20;;;12.70;99.90;;;;;;5067504;28;20423;-73
2023/07/26 00:12:36;;;;;;;7.73;4.97;;;12.70;99.90;;;;;;5056596;28;20041;-74
2023/07/26 00:15:02;;;;;;;7.68;5.80;;;12.70;99.90;;;;;;5061499;28;20041;-74
2023/07/26 00:17:30;;;;;;;7.32;5.05;;;12.70;99.90;;;;;;5052415;28;20086;-74
2023/07/26 00:19:56;;;;;;;7.53;5.60;;;12.70;99.90;;;;;;5066847;28;20036;-74
2023/07/26 00:22:22;;;;;;;6.60;5.93;;;12.60;99.90;;;;;;5063556;28;20125;-74
2023/07/26 00:24:48;;;;;;;8.05;5.40;;;12.70;99.90;;;;;;5070011;28;20676;-73
2023/07/26 00:27:16;;;;;;;8.73;6.15;;;12.70;99.90;;;;;;5040470;28;20052;-74
2023/07/26 00:29:43;;;;;;;6.55;5.20;;;12.60;99.90;;;;;;5045760;28;20044;-74
2023/07/26 00:32:08;;;;;;;7.47;5.20;;;12.60;99.90;;;;;;5062139;28;20080;-74
2023/07/26 00:34:35;;;;;;;6.75;5.25;;;12.60;99.90;;;;;;5047836;28;20772;-74
2023/07/26 00:37:03;;;;;;;6.53;5.30;;;12.60;99.90;;;;;;5045556;28;20538;-74
2023/07/26 00:39:30;;;;;;;7.07;5.25;;;12.60;99.90;;;;;;5061701;28;20054;-74
2023/07/26 00:41:55;;;;;;;8.18;6.10;;;12.70;99.90;;;;;;5042354;28;20048;-74
2023/07/26 00:44:21;;;;;;;7.60;5.00;;;12.70;99.90;;;;;;5068325;28;20045;-74
2023/07/26 00:46:48;;;;;;;6.45;5.40;;;12.60;99.90;;;;;;5049643;28;20052;-73
2023/07/26 00:49:14;;;;;;;8.23;7.40;;;12.60;99.90;;;;;;5045448;28;20509;-74
2023/07/26 00:51:40;;;;;;;7.68;5.40;;;12.60;99.90;;;;;;5043227;28;20041;-74
2023/07/26 00:54:07;;;;;;;6.82;5.18;;;12.60;99.90;;;;;;5061175;28;20090;-74
2023/07/26 00:56:34;;;;;;;8.05;4.93;;;12.60;99.90;;;;;;5043991;28;20044;-73
2023/07/26 00:59:00;;;;;;;6.63;5.97;;;12.60;99.90;;;;;;5046622;28;20135;-72
2023/07/26 01:01:27;;;;;;;8.40;5.40;;;12.50;99.90;;;;;;5057604;28;20044;-74
2023/07/26 01:03:53;;;;;;;8.77;6.88;;;12.50;99.90;;;;;;5071129;28;20033;-73
2023/07/26 01:06:39;;;;;;;9.60;7.22;;;12.50;99.90;;;;;;5045574;28;20040;-74
2023/07/26 01:09:31;;;;;;;5.97;5.35;;;12.50;99.90;;;;;;5044521;28;20457;-74
2023/07/26 01:12:09;;;;;;;6.68;5.00;;;12.40;99.90;;;;;;5062804;28;20849;-73
2023/07/26 01:14:44;;;;;;;7.13;5.95;;;12.40;99.90;;;;;;5062695;28;20071;-73
2023/07/26 01:17:10;;;;;;;9.63;7.93;;;12.40;99.90;;;;;;5044859;28;20380;-73
2023/07/26 01:19:36;;;;;;;8.82;7.18;;;12.50;99.90;;;;;;5056141;28;20040;-73
2023/07/26 01:22:02;;;;;;;8.25;5.70;;;12.50;99.90;;;;;;5050454;28;20048;-73
2023/07/26 01:24:28;;;;;;;7.00;5.88;;;12.40;99.90;;;;;;5040537;28;20052;-73
2023/07/26 01:26:53;;;;;;;12.52;8.02;;;12.30;99.90;;;;;;5045713;28;20060;-73
2023/07/26 01:29:19;;;;;;;8.40;5.25;;;12.30;99.90;;;;;;5061722;28;20051;-74
2023/07/26 01:31:46;;;;;;;7.63;5.40;;;12.30;99.90;;;;;;5056341;28;20049;-74
2023/07/26 01:34:12;;;;;;;8.85;5.50;;;12.30;99.90;;;;;;5040632;28;20060;-73
2023/07/26 01:36:40;;;;;;;9.60;5.95;;;12.30;99.90;;;;;;5054008;28;20059;-74
2023/07/26 01:39:10;;;;;;;8.30;6.00;;;12.30;99.90;;;;;;5063468;28;20105;-73
2023/07/26 01:41:36;;;;;;;10.02;7.70;;;12.40;99.90;;;;;;5049443;28;20041;-74
2023/07/26 01:44:02;;;;;;;6.90;5.88;;;12.30;99.90;;;;;;5041181;28;20033;-74
2023/07/26 01:46:28;;;;;;;6.93;5.20;;;12.30;99.90;;;;;;5059036;28;20537;-74
2023/07/26 01:48:54;;;;;;;7.10;5.43;;;12.30;99.90;;;;;;5040574;28;20068;-74
2023/07/26 01:51:19;;;;;;;8.77;6.10;;;12.20;99.90;;;;;;5037066;28;20400;-74
2023/07/26 01:53:45;;;;;;;6.00;5.30;;;12.30;99.90;;;;;;5055291;28;20439;-73
2023/07/26 01:56:11;;;;;;;6.78;5.40;;;12.20;99.90;;;;;;5038141;28;20518;-74
2023/07/26 01:58:37;;;;;;;7.95;5.85;;;12.10;99.90;;;;;;5058997;28;20146;-75
2023/07/26 02:01:06;;;;;;;10.40;7.63;;;12.10;99.90;;;;;;5039291;28;20040;-74
2023/07/26 02:03:32;;;;;;;6.65;5.32;;;12.00;99.90;;;;;;5030131;28;20493;-74
2023/07/26 02:05:58;;;;;;;6.75;5.57;;;12.00;99.90;;;;;;5028139;28;20105;-74
2023/07/26 02:08:24;;;;;;;8.98;6.32;;;12.00;99.90;;;;;;5047869;28;20075;-74
2023/07/26 02:10:49;;;;;;;7.82;5.47;;;11.90;99.90;;;;;;5047407;28;20083;-74
2023/07/26 02:13:15;;;;;;;9.00;8.10;;;11.90;99.90;;;;;;5052753;28;20472;-74
2023/07/26 02:15:41;;;;;;;6.85;6.15;;;11.90;99.90;;;;;;5053028;28;20044;-74
2023/07/26 02:18:07;;;;;;;8.73;6.28;;;11.90;99.90;;;;;;5043224;28;20150;-73
2023/07/26 02:20:33;;;;;;;8.35;7.50;;;11.80;99.90;;;;;;5045170;28;20100;-73
2023/07/26 02:22:59;;;;;;;8.35;7.18;;;11.80;99.90;;;;;;5059912;28;20036;-74
2023/07/26 02:25:24;;;;;;;9.18;8.10;;;11.70;99.90;;;;;;5045561;28;20168;-73
2023/07/26 02:27:51;;;;;;;8.93;8.00;;;11.70;99.90;;;;;;5036005;28;20155;-74
2023/07/26 02:30:17;;;;;;;7.85;6.47;;;11.70;99.90;;;;;;5044255;28;20132;-74
2023/07/26 02:32:43;;;;;;;10.57;9.48;;;11.70;99.90;;;;;;5044349;28;20563;-73
2023/07/26 02:35:08;;;;;;;9.23;8.13;;;11.70;99.90;;;;;;5049523;28;20044;-73
2023/07/26 02:37:34;;;;;;;8.48;7.35;;;11.60;99.90;;;;;;5050298;28;20107;-73
2023/07/26 02:40:00;;;;;;;7.93;7.13;;;11.60;99.90;;;;;;5033537;28;20040;-72
2023/07/26 02:42:27;;;;;;;9.70;8.40;;;11.60;99.90;;;;;;5051277;28;20399;-73
2023/07/26 02:44:54;;;;;;;12.55;10.07;;;11.50;99.90;;;;;;5033704;28;20044;-73
2023/07/26 02:47:20;;;;;;;10.02;8.02;;;11.50;99.90;;;;;;5039677;28;20139;-73
2023/07/26 02:49:46;;;;;;;7.35;6.68;;;11.50;99.90;;;;;;5058178;28;20209;-73
2023/07/26 02:52:12;;;;;;;6.95;6.25;;;11.50;99.90;;;;;;5042995;28;20056;-73
2023/07/26 02:54:38;;;;;;;9.77;8.38;;;11.40;99.90;;;;;;5050402;28;20052;-73
2023/07/26 02:57:04;;;;;;;9.43;8.13;;;11.40;99.90;;;;;;5047389;28;20048;-73
2023/07/26 02:59:29;;;;;;;7.18;5.93;;;11.50;99.90;;;;;;5035457;28;20079;-73
2023/07/26 03:01:55;;;;;;;7.43;6.63;;;11.50;99.90;;;;;;5039212;28;20073;-72
2023/07/26 03:04:21;;;;;;;13.20;9.15;;;11.50;99.90;;;;;;5055327;28;20117;-73
2023/07/26 03:06:47;;;;;;;9.23;7.25;;;11.40;99.90;;;;;;5040231;28;20120;-73
2023/07/26 03:09:13;;;;;;;9.65;7.00;;;11.40;99.90;;;;;;5045199;28;20570;-73
2023/07/26 03:11:38;;;;;;;9.02;8.00;;;11.40;99.90;;;;;;5048195;28;20734;-73
2023/07/26 03:14:04;;;;;;;11.82;9.25;;;11.40;99.90;;;;;;5059903;28;20052;-73
2023/07/26 03:16:30;;;;;;;8.70;7.53;;;11.40;99.90;;;;;;5053110;28;20084;-73
2023/07/26 03:19:00;;;;;;;8.55;7.75;;;11.40;99.90;;;;;;5056554;28;20049;-73
2023/07/26 03:21:26;;;;;;;11.38;9.23;;;11.40;99.90;;;;;;5044088;28;20063;-73
2023/07/26 03:23:51;;;;;;;11.75;10.25;;;11.40;99.90;;;;;;5060083;28;20045;-72
2023/07/26 03:26:17;;;;;;;9.50;7.45;;;11.40;99.90;;;;;;5061721;28;20510;-73
2023/07/26 03:28:44;;;;;;;8.00;7.20;;;11.40;99.90;;;;;;5057663;28;20040;-74
2023/07/26 03:31:10;;;;;;;10.00;7.65;;;11.40;99.90;;;;;;5043201;28;20052;-73
2023/07/26 03:33:35;;;;;;;7.55;6.43;;;11.40;99.90;;;;;;5027212;28;20041;-73
2023/07/26 03:36:01;;;;;;;10.40;6.75;;;11.40;99.90;;;;;;5051204;28;20052;-73
2023/07/26 03:38:27;;;;;;;7.38;6.15;;;11.50;99.90;;;;;;5048512;28;20565;-73
2023/07/26 03:40:53;;;;;;;8.80;7.90;;;11.50;99.90;;;;;;5054851;28;20037;-73
2023/07/26 03:43:18;;;;;;;7.63;6.38;;;11.50;99.90;;;;;;5041717;28;20071;-73
2023/07/26 03:45:44;;;;;;;6.82;6.13;;;11.50;99.90;;;;;;5042080;28;20051;-72
2023/07/26 03:48:10;;;;;;;7.10;6.40;;;11.40;99.90;;;;;;5041760;28;20052;-73
2023/07/26 03:50:36;;;;;;;11.80;10.25;;;11.50;99.90;;;;;;5056557;28;20048;-73
2023/07/26 03:53:01;;;;;;;8.70;7.80;;;11.50;99.90;;;;;;5035152;28;20037;-72
2023/07/26 03:55:27;;;;;;;7.93;6.43;;;11.50;99.90;;;;;;5047498;28;20211;-73
2023/07/26 03:57:53;;;;;;;12.63;11.32;;;11.50;99.90;;;;;;5046754;28;20499;-73
2023/07/26 04:00:19;;;;;;;8.13;7.32;;;11.50;99.90;;;;;;5044392;28;20494;-72
2023/07/26 04:02:45;;;;;;;8.02;7.20;;;11.50;99.90;;;;;;5050864;28;20051;-73
2023/07/26 04:05:10;;;;;;;8.52;7.72;;;11.60;99.90;;;;;;5042159;28;20621;-73
2023/07/26 04:07:39;;;;;;;9.23;7.55;;;11.60;99.90;;;;;;5045192;28;20055;-73
2023/07/26 04:10:06;;;;;;;8.82;8.02;;;11.60;99.90;;;;;;5047650;28;20051;-73
2023/07/26 04:12:32;;;;;;;8.38;7.50;;;11.70;99.90;;;;;;5040339;28;20087;-73
2023/07/26 04:14:57;;;;;;;9.38;8.05;;;11.80;99.90;;;;;;5060845;28;20208;-73
2023/07/26 04:17:23;;;;;;;8.93;8.07;;;11.80;99.90;;;;;;5047065;28;20056;-73
2023/07/26 04:19:49;;;;;;;10.00;8.13;;;11.90;99.90;;;;;;5050527;28;20041;-74
2023/07/26 04:22:15;;;;;;;8.90;8.02;;;11.90;99.90;;;;;;5047254;28;20049;-74
2023/07/26 04:24:42;;;;;;;10.73;8.60;;;12.00;99.90;;;;;;5058548;28;20049;-74
2023/07/26 04:27:07;;;;;;;9.55;8.65;;;12.00;99.90;;;;;;5043294;28;20040;-74
2023/07/26 04:29:33;;;;;;;11.73;9.40;;;12.00;99.90;;;;;;5056572;28;20422;-74
2023/07/26 04:31:59;;;;;;;13.13;10.68;;;12.10;99.90;;;;;;5059068;28;20556;-74
2023/07/26 04:34:25;;;;;;;13.48;10.00;;;12.10;99.90;;;;;;5049304;28;20076;-74
2023/07/26 04:36:51;;;;;;;17.83;12.90;;;12.10;99.90;;;;;;5056031;28;20161;-75
2023/07/26 04:39:17;;;;;;;12.45;10.38;;;12.10;99.90;;;;;;5042023;28;21570;-75
2023/07/26 04:41:42;;;;;;;13.05;10.82;;;12.20;99.90;;;;;;5040175;28;20040;-75
2023/07/26 04:44:08;;;;;;;10.27;8.85;;;12.20;99.90;;;;;;5055498;28;20067;-75
2023/07/26 04:46:35;;;;;;;11.18;10.00;;;12.20;99.90;;;;;;5059712;28;20060;-75
2023/07/26 04:49:01;;;;;;;9.32;8.40;;;12.20;99.90;;;;;;5065675;28;20505;-75
2023/07/26 04:51:27;;;;;;;14.70;11.05;;;12.20;99.90;;;;;;5064210;28;20044;-75
2023/07/26 04:53:52;;;;;;;11.20;9.60;;;12.20;99.90;;;;;;5054995;28;20483;-74
2023/07/26 04:56:18;;;;;;;10.98;8.55;;;12.30;99.90;;;;;;5041483;28;20040;-74
2023/07/26 04:58:44;;;;;;;9.82;8.52;;;12.30;99.90;;;;;;5048189;28;20068;-75
2023/07/26 05:01:10;;;;;;;11.43;9.68;;;12.30;99.90;;;;;;5046032;28;20384;-75
2023/07/26 05:03:38;;;;;;;9.45;8.52;;;12.30;99.90;;;;;;5039068;28;21166;-75
2023/07/26 05:06:04;;;;;;;9.30;8.18;;;12.30;99.90;;;;;;5055085;28;20052;-75
2023/07/26 05:08:29;;;;;;;8.35;7.53;;;12.30;99.90;;;;;;5046344;28;20036;-76
2023/07/26 05:10:55;;;;;;;8.15;7.35;;;12.40;99.90;;;;;;5041681;28;20131;-75
2023/07/26 05:13:23;;;;;;;9.13;7.32;;;12.40;99.90;;;;;;5022760;28;20560;-75
2023/07/26 05:15:49;;;;;;;8.73;7.82;;;12.50;99.90;;;;;;5047443;28;20639;-73
2023/07/26 05:18:15;;;;;;;8.30;7.50;;;12.50;99.90;;;;;;5046172;28;20052;-74
2023/07/26 05:20:44;;;;;;;26.58;15.90;;;12.50;99.90;;;;;;5056060;28;20043;-74
2023/07/26 05:23:10;;;;;;;9.43;8.43;;;12.50;99.90;;;;;;5052598;28;20049;-74
2023/07/26 05:25:39;;;;;;;12.32;10.57;;;12.50;99.90;;;;;;5055367;28;20122;-74
2023/07/26 05:28:05;;;;;;;11.00;9.93;;;12.50;99.90;;;;;;5037901;28;20029;-73
2023/07/26 05:30:31;;;;;;;12.73;11.10;;;12.50;99.90;;;;;;5058886;28;20391;-73
2023/07/26 05:32:56;;;;;;;9.98;8.98;;;12.50;99.90;;;;;;5054986;28;20179;-74
2023/07/26 05:35:25;;;;;;;10.95;9.95;;;12.50;99.90;;;;;;5054500;28;20079;-74
2023/07/26 05:37:53;;;;;;;12.23;10.68;;;12.50;99.90;;;;;;5055135;28;20506;-74
2023/07/26 05:40:19;;;;;;;11.40;10.32;;;12.60;99.90;;;;;;5052848;28;20132;-74
2023/07/26 05:42:45;;;;;;;12.23;10.98;;;12.60;99.90;;;;;;5058932;28;20036;-74
2023/07/26 05:45:11;;;;;;;11.80;10.30;;;12.60;99.90;;;;;;5055843;28;20055;-74
2023/07/26 05:47:38;;;;;;;12.00;10.77;;;12.70;99.90;;;;;;5059595;28;20151;-74
2023/07/26 05:50:10;;;;;;;12.43;11.20;;;12.80;99.90;;;;;;5057264;28;20115;-74
2023/07/26 05:52:36;;;;;;;12.45;10.88;;;12.90;99.90;;;;;;5062606;28;20045;-74
2023/07/26 05:55:02;;;;;;;11.77;10.60;;;12.90;99.90;;;;;;5039394;28;20029;-74
2023/07/26 05:57:28;;;;;;;10.63;9.45;;;13.00;99.90;;;;;;5042719;28;20134;-74
2023/07/26 05:59:54;;;;;;;10.77;9.77;;;13.00;99.90;;;;;;5058102;28;20487;-75
2023/07/26 06:02:20;;;;;;;9.13;8.25;;;13.00;99.90;;;;;;5060030;28;20110;-75
2023/07/26 06:04:49;;;;;;;10.05;8.52;;;13.10;99.90;;;;;;5061312;28;20507;-74
2023/07/26 06:07:16;;;;;;;11.30;9.95;;;13.10;99.90;;;;;;5058782;28;20048;-74
2023/07/26 06:09:42;;;;;;;10.20;8.50;;;13.10;99.90;;;;;;5051892;28;20140;-74
2023/07/26 06:12:08;;;;;;;9.65;8.68;;;13.10;99.90;;;;;;5059864;28;20048;-75
2023/07/26 06:14:34;;;;;;;10.75;9.63;;;13.20;99.90;;;;;;5054860;28;20088;-75
2023/07/26 06:17:00;;;;;;;9.93;8.93;;;13.20;99.90;;;;;;5042477;28;20075;-74
2023/07/26 06:19:26;;;;;;;10.10;7.95;;;13.30;99.90;;;;;;5056676;28;20063;-74
2023/07/26 06:21:55;;;;;;;10.40;9.27;;;13.30;99.90;;;;;;5048581;28;20053;-74
2023/07/26 06:24:22;;;;;;;10.70;9.63;;;13.40;99.90;;;;;;5044959;28;20052;-74
2023/07/26 06:26:52;;;;;;;10.50;8.07;;;13.40;99.90;;;;;;5042907;28;20455;-74
2023/07/26 06:29:18;;;;;;;10.48;9.32;;;13.40;99.90;;;;;;5028912;28;20095;-75
2023/07/26 06:31:44;;;;;;;11.35;10.25;;;13.50;99.90;;;;;;5059978;28;20045;-74
2023/07/26 06:34:10;;;;;;;10.30;9.30;;;13.50;99.90;;;;;;5055348;28;20043;-74
2023/07/26 06:36:36;;;;;;;10.95;8.80;;;13.40;99.90;;;;;;5056661;28;20117;-74
2023/07/26 06:39:02;;;;;;;10.43;9.10;;;13.50;99.90;;;;;;5040965;28;20048;-74
2023/07/26 06:41:28;;;;;;;11.60;9.07;;;13.50;99.90;;;;;;5051838;28;20044;-74
2023/07/26 06:43:54;;;;;;;9.40;8.30;;;13.50;99.90;;;;;;5054541;28;20036;-74
2023/07/26 06:46:20;;;;;;;9.77;8.60;;;13.50;99.90;;;;;;5039946;28;20052;-74
2023/07/26 06:48:45;;;;;;;9.20;8.07;;;13.50;99.90;;;;;;5053394;28;20045;-74
2023/07/26 06:51:11;;;;;;;10.68;8.70;;;13.60;99.90;;;;;;5051512;28;20406;-74
2023/07/26 06:53:37;;;;;;;13.45;10.75;;;13.60;99.90;;;;;;5054852;28;20131;-74
2023/07/26 06:56:03;;;;;;;11.02;9.30;;;13.60;99.90;;;;;;5041344;28;20040;-74
2023/07/26 06:58:29;;;;;;;10.30;9.18;;;13.60;99.90;;;;;;5050828;28;20542;-74
2023/07/26 07:00:55;;;;;;;9.05;8.15;;;13.60;99.90;;;;;;5041695;28;20125;-74
2023/07/26 07:03:21;;;;;;;11.43;10.13;;;13.60;99.90;;;;;;5047649;28;20048;-74
2023/07/26 07:05:47;;;;;;;8.98;7.70;;;13.60;99.90;;;;;;5050883;28;20346;-74
2023/07/26 07:08:13;;;;;;;12.48;9.13;;;13.60;99.90;;;;;;5044777;28;20052;-74
2023/07/26 07:10:39;;;;;;;9.40;8.50;;;13.60;99.90;;;;;;5047923;28;20045;-73
2023/07/26 07:13:05;;;;;;;12.05;10.60;;;13.60;99.90;;;;;;5054364;28;20044;-73
2023/07/26 07:15:30;;;;;;;13.82;11.18;;;13.60;99.90;;;;;;5040468;28;20048;-73
2023/07/26 07:17:56;;;;;;;22.20;15.15;;;13.60;99.90;;;;;;5042503;28;20036;-73
2023/07/26 07:20:23;;;;;;;10.73;9.65;;;13.60;99.90;;;;;;5040621;28;20047;-73
2023/07/26 07:22:52;;;;;;;10.85;9.75;;;13.60;99.90;;;;;;5053778;28;20095;-73
2023/07/26 07:25:21;;;;;;;42.72;20.15;;;13.60;99.90;;;;;;5061699;28;20090;-72
2023/07/26 07:27:46;;;;;;;30.95;16.15;;;13.60;99.90;;;;;;5060362;28;20669;-72
2023/07/26 07:30:14;;;;;;;12.35;10.48;;;13.60;99.90;;;;;;5038131;28;20091;-72
2023/07/26 07:32:40;;;;;;;20.58;13.23;;;13.60;99.90;;;;;;5047448;28;20053;-72
2023/07/26 07:35:09;;;;;;;25.63;13.38;;;13.60;99.90;;;;;;5041550;28;20052;-74
2023/07/26 07:37:35;;;;;;;11.35;9.38;;;13.50;99.90;;;;;;5044085;28;20048;-73
2023/07/26 07:40:03;;;;;;;11.38;9.70;;;13.50;99.90;;;;;;5041926;28;20060;-74
2023/07/26 07:42:30;;;;;;;7.97;5.65;;;13.40;99.90;;;;;;5062533;28;20044;-73
2023/07/26 07:44:56;;;;;;;7.80;4.88;;;13.40;99.90;;;;;;5056361;28;20121;-73
2023/07/26 07:47:22;;;;;;;7.82;4.45;;;13.30;99.90;;;;;;5046153;28;21219;-73
2023/07/26 07:49:47;;;;;;;8.52;4.90;;;13.30;99.90;;;;;;5058282;28;20044;-73
2023/07/26 07:52:14;;;;;;;20.58;9.02;;;13.30;99.90;;;;;;5055462;28;20056;-72
2023/07/26 07:54:40;;;;;;;7.90;3.85;;;13.20;99.90;;;;;;5042502;28;20052;-73
2023/07/26 07:57:06;;;;;;;5.80;3.60;;;13.20;99.90;;;;;;5056880;28;20036;-73
2023/07/26 07:59:32;;;;;;;4.75;3.45;;;13.20;99.90;;;;;;5045731;28;20040;-72
2023/07/26 08:01:57;;;;;;;4.95;3.70;;;13.20;99.90;;;;;;5038260;28;20052;-73
2023/07/26 08:04:23;;;;;;;6.95;3.50;;;13.20;99.90;;;;;;5049808;28;20398;-74
2023/07/26 08:06:49;;;;;;;4.05;2.95;;;13.20;99.90;;;;;;5050044;28;20175;-76
2023/07/26 08:09:15;;;;;;;7.22;3.75;;;13.20;99.90;;;;;;5047076;28;20518;-73
2023/07/26 08:11:41;;;;;;;5.95;3.90;;;13.20;99.90;;;;;;5054851;28;20036;-73
2023/07/26 08:14:07;;;;;;;4.30;3.05;;;13.20;99.90;;;;;;5058041;28;20159;-73
2023/07/26 08:16:33;;;;;;;4.00;2.72;;;13.30;99.90;;;;;;5053408;28;20044;-73
2023/07/26 08:19:01;;;;;;;5.15;3.20;;;13.30;99.90;;;;;;5059046;28;20044;-73
2023/07/26 08:21:27;;;;;;;5.05;3.78;;;13.30;99.90;;;;;;5061438;28;20057;-73
2023/07/26 08:23:52;;;;;;;8.65;6.35;;;13.40;99.90;;;;;;5040403;28;20041;-73
2023/07/26 08:26:18;;;;;;;7.32;6.43;;;13.50;99.90;;;;;;5053968;28;20491;-73
2023/07/26 08:28:44;;;;;;;9.55;8.43;;;13.60;99.90;;;;;;5056955;28;20056;-74
2023/07/26 08:31:11;;;;;;;11.98;10.88;;;13.70;99.90;;;;;;5047225;28;20045;-73
2023/07/26 08:33:36;;;;;;;11.48;10.38;;;13.70;99.90;;;;;;5056099;28;20187;-73
2023/07/26 08:36:03;;;;;;;13.40;12.00;;;13.80;99.90;;;;;;5052089;28;20120;-73
2023/07/26 08:38:29;;;;;;;14.98;13.50;;;13.80;99.90;;;;;;5044885;28;20041;-74
2023/07/26 08:40:55;;;;;;;12.80;11.65;;;13.90;99.90;;;;;;5053442;28;20028;-74
2023/07/26 08:43:23;;;;;;;12.98;11.77;;;14.00;99.90;;;;;;5053385;28;20045;-72
2023/07/26 08:45:49;;;;;;;10.98;9.43;;;14.20;99.90;;;;;;5043801;28;20052;-72
2023/07/26 08:48:18;;;;;;;9.25;8.30;;;14.40;99.90;;;;;;5055673;28;20057;-73
2023/07/26 08:50:44;;;;;;;12.38;11.07;;;14.50;99.90;;;;;;5060678;28;20036;-73
2023/07/26 08:53:10;;;;;;;9.18;8.27;;;14.70;99.90;;;;;;5053938;28;20709;-73
2023/07/26 08:55:36;;;;;;;9.68;8.68;;;15.00;99.90;;;;;;5054559;28;20040;-74
2023/07/26 08:58:03;;;;;;;8.18;7.25;;;15.30;99.90;;;;;;5040480;28;20080;-73
2023/07/26 09:00:30;;;;;;;9.38;8.40;;;15.60;99.90;;;;;;5040796;28;20037;-73
2023/07/26 09:02:59;;;;;;;6.22;5.38;;;15.90;99.90;;;;;;5042051;28;20043;-73
2023/07/26 09:05:25;;;;;;;7.82;5.63;;;16.00;99.90;;;;;;5060632;28;20052;-73
2023/07/26 09:07:51;;;;;;;5.38;3.90;;;16.20;99.90;;;;;;5063589;28;20252;-74
2023/07/26 09:10:23;;;;;;;5.75;3.60;;;16.40;99.90;;;;;;5038679;28;20040;-74
2023/07/26 09:12:50;;;;;;;5.97;3.63;;;16.60;99.90;;;;;;5040800;28;20044;-74
2023/07/26 09:15:18;;;;;;;4.70;3.72;;;16.80;99.90;;;;;;5043099;28;20059;-74
2023/07/26 09:17:44;;;;;;;5.38;3.78;;;17.00;99.90;;;;;;5061881;28;20521;-74
2023/07/26 09:20:29;;;;;;;4.65;3.60;;;17.10;99.90;;;;;;5057203;28;20048;-74
2023/07/26 09:22:59;;;;;;;6.18;4.45;;;17.10;99.90;;;;;;5045019;28;20105;-74
2023/07/26 09:25:39;;;;;;;5.35;3.78;;;17.10;99.90;;;;;;5052733;28;20109;-74
2023/07/26 09:28:14;;;;;;;5.28;4.13;;;17.10;99.90;;;;;;5039062;28;20045;-74
2023/07/26 09:30:42;;;;;;;5.93;4.00;;;17.20;99.90;;;;;;5048289;28;20048;-73
2023/07/26 09:33:10;;;;;;;5.18;3.75;;;17.30;99.90;;;;;;5062466;28;20040;-73
2023/07/26 09:35:48;;;;;;;5.53;4.05;;;17.40;99.90;;;;;;5060505;28;20411;-73
2023/07/26 09:38:16;;;;;;;4.95;3.33;;;17.40;99.90;;;;;;5066766;28;20075;-73
2023/07/26 09:40:42;;;;;;;4.50;3.05;;;17.30;99.90;;;;;;5049897;28;20041;-73
2023/07/26 09:43:08;;;;;;;4.82;3.20;;;17.20;99.90;;;;;;5054476;28;20041;-73
2023/07/26 09:45:36;;;;;;;5.60;3.00;;;17.00;99.90;;;;;;5055689;28;20043;-73
2023/07/26 09:48:07;;;;;;;4.55;2.92;;;16.90;99.90;;;;;;5054946;28;20037;-73
2023/07/26 09:50:35;;;;;;;5.78;3.88;;;16.80;99.90;;;;;;5042804;28;20032;-74
2023/07/26 09:53:06;;;;;;;6.13;3.67;;;16.60;99.90;;;;;;5034296;28;20538;-75
2023/07/26 09:55:33;;;;;;;3.78;2.90;;;16.50;99.90;;;;;;5039525;28;20044;-74
2023/07/26 09:58:00;;;;;;;4.93;3.50;;;16.40;99.90;;;;;;5060614;28;20520;-74
2023/07/26 10:00:27;;;;;;;5.30;3.47;;;16.30;99.90;;;;;;5053674;28;20396;-74
2023/07/26 10:03:04;;;;;;;5.10;3.83;;;16.30;99.90;;;;;;5055714;28;20075;-74
2023/07/26 10:05:45;;;;;;;5.90;4.13;;;16.30;99.90;;;;;;5055087;28;20140;-78
2023/07/26 10:08:12;;;;;;;6.07;5.00;;;16.30;99.90;;;;;;5059545;28;20062;-78
2023/07/26 10:10:41;;;;;;;6.88;4.45;;;16.40;99.90;;;;;;5060673;28;20044;-78
2023/07/26 10:13:09;;;;;;;5.55;4.43;;;16.50;99.90;;;;;;5055588;28;20037;-78
2023/07/26 10:15:36;;;;;;;7.03;5.30;;;16.70;99.90;;;;;;5056486;28;20458;-78
2023/07/26 10:18:02;;;;;;;9.00;5.80;;;16.90;99.90;;;;;;5046733;28;20044;-78
2023/07/26 10:20:28;;;;;;;7.13;5.05;;;16.90;99.90;;;;;;5049441;28;20041;-77
2023/07/26 10:23:01;;;;;;;5.25;3.50;;;17.00;99.90;;;;;;5044645;28;20049;-77
2023/07/26 10:25:28;;;;;;;6.63;4.07;;;17.20;99.90;;;;;;5056034;28;20060;-77
2023/07/26 10:27:54;;;;;;;4.80;3.60;;;17.50;99.90;;;;;;5063095;28;20487;-79
2023/07/26 10:30:20;;;;;;;6.03;4.00;;;17.80;99.90;;;;;;5049612;28;20056;-78
2023/07/26 10:32:50;;;;;;;5.72;4.30;;;17.90;99.90;;;;;;5045409;28;20048;-78
2023/07/26 10:35:34;;;;;;;6.00;4.55;;;18.10;99.90;;;;;;5061156;28;20490;-78
2023/07/26 10:38:03;;;;;;;6.32;4.10;;;18.20;99.90;;;;;;5029498;28;20036;-79
2023/07/26 10:40:40;;;;;;;4.60;2.87;;;18.30;99.90;;;;;;5046415;28;20033;-78
2023/07/26 10:43:21;;;;;;;4.72;2.90;;;18.50;99.90;;;;;;5052715;28;20263;-78
2023/07/26 10:45:48;;;;;;;4.10;2.88;;;18.50;99.90;;;;;;5039575;28;20144;-79
2023/07/26 10:48:26;;;;;;;3.90;3.10;;;18.40;99.90;;;;;;5049328;28;20040;-78
2023/07/26 10:50:58;;;;;;;4.43;3.17;;;18.30;99.90;;;;;;5052820;28;20036;-77
2023/07/26 10:53:28;;;;;;;5.20;3.47;;;18.20;99.90;;;;;;5043768;28;20064;-77
2023/07/26 10:56:09;;;;;;;6.15;3.67;;;18.10;99.90;;;;;;5046616;28;20036;-78
2023/07/26 10:58:34;;;;;;;5.15;3.78;;;18.00;99.90;;;;;;5060778;28;20066;-78
2023/07/26 11:01:02;;;;;;;6.40;3.28;;;17.90;99.90;;;;;;5054881;28;20036;-77
2023/07/26 11:03:29;;;;;;;5.95;3.40;;;17.80;99.90;;;;;;5041669;28;20469;-77
2023/07/26 11:05:56;;;;;;;6.75;4.15;;;17.70;99.90;;;;;;5063469;28;20036;-78
2023/07/26 11:08:41;;;;;;;3.17;2.03;;;17.50;99.90;;;;;;5032654;28;20391;-78
2023/07/26 11:11:11;;;;;;;2.95;1.20;;;17.30;99.90;;;;;;5051419;28;20052;-78
2023/07/26 11:13:36;;;;;;;1.33;0.93;;;17.10;99.90;;;;;;5039254;28;20484;-78
2023/07/26 11:16:02;;;;;;;2.20;1.00;;;16.70;99.90;;;;;;5054438;28;20361;-77
2023/07/26 11:18:28;;;;;;;1.50;1.02;;;16.40;99.90;;;;;;5053668;28;20137;-79
2023/07/26 11:20:55;;;;;;;2.13;1.30;;;16.30;99.90;;;;;;5043853;28;20044;-77
2023/07/26 11:23:30;;;;;;;3.10;1.30;;;16.40;99.90;;;;;;5061696;28;20060;-78
2023/07/26 11:25:58;;;;;;;2.33;0.82;;;16.70;99.90;;;;;;5050948;28;20052;-78
2023/07/26 11:28:28;;;;;;;2.33;0.70;;;17.00;99.90;;;;;;5050205;28;20049;-78
2023/07/26 11:30:56;;;;;;;0.75;0.40;;;17.20;99.90;;;;;;5052924;28;20036;-78
2023/07/26 11:33:33;;;;;;;0.73;0.47;;;17.30;99.90;;;;;;5060736;28;20048;-77
2023/07/26 11:36:05;;;;;;;1.35;0.50;;;17.30;99.90;;;;;;5046343;28;20665;-78
2023/07/26 11:38:31;;;;;;;0.90;0.60;;;17.40;99.90;;;;;;5049723;28;20045;-78
2023/07/26 11:41:00;;;;;;;2.58;0.88;;;17.60;99.90;;;;;;5060004;28;20115;-78
2023/07/26 11:43:27;;;;;;;2.67;1.05;;;17.80;99.90;;;;;;5061989;28;20049;-78
2023/07/26 11:45:54;;;;;;;2.20;1.30;;;18.00;99.90;;;;;;5059275;28;20094;-76
2023/07/26 11:48:20;;;;;;;3.15;1.80;;;18.20;99.90;;;;;;5043788;28;20131;-77
2023/07/26 11:50:47;;;;;;;3.58;1.80;;;18.30;99.90;;;;;;5053080;28;20048;-79
2023/07/26 11:53:15;;;;;;;4.25;2.42;;;18.50;99.90;;;;;;5046381;28;20044;-78
2023/07/26 11:55:43;;;;;;;4.43;2.17;;;18.80;99.90;;;;;;5056879;28;20049;-79
2023/07/26 11:58:11;;;;;;;5.38;2.58;;;19.00;99.90;;;;;;5051745;28;20060;-79
2023/07/26 12:00:42;;;;;;;4.63;2.10;;;19.10;99.90;;;;;;5056735;28;20047;-80
2023/07/26 12:03:08;;;;;;;4.50;2.45;;;19.30;99.90;;;;;;5046381;28;20052;-80
2023/07/26 12:05:34;;;;;;;3.15;1.90;;;19.30;99.90;;;;;;5057464;28;20044;-80
2023/07/26 12:08:06;;;;;;;4.20;2.25;;;19.40;99.90;;;;;;5046174;28;20460;-80
2023/07/26 12:10:33;;;;;;;7.30;2.70;;;19.40;99.90;;;;;;5054556;28;20043;-82
2023/07/26 12:13:00;;;;;;;4.65;2.25;;;19.60;99.90;;;;;;5038296;28;20550;-81
2023/07/26 12:15:27;;;;;;;3.78;1.80;;;19.70;99.90;;;;;;5057680;28;20048;-82
2023/07/26 12:18:01;;;;;;;3.03;1.73;;;19.80;99.90;;;;;;5057187;28;20970;-79
2023/07/26 12:20:31;;;;;;;3.97;1.80;;;19.90;99.90;;;;;;5042136;28;20106;-82
2023/07/26 12:23:00;;;;;;;3.50;1.88;;;20.00;99.90;;;;;;5040398;28;20049;-82
2023/07/26 12:25:40;;;;;;;3.40;1.92;;;20.00;99.90;;;;;;5042762;28;20050;-82
2023/07/26 12:28:07;;;;;;;4.00;2.22;;;20.10;99.90;;;;;;5047453;28;20044;-83
2023/07/26 12:30:34;;;;;;;3.90;1.58;;;20.20;99.90;;;;;;5059515;28;20047;-83
2023/07/26 12:33:09;;;;;;;3.40;1.83;;;20.30;99.90;;;;;;5058847;28;20744;-83
2023/07/26 12:35:35;;;;;;;4.22;2.00;;;20.40;99.90;;;;;;5056145;28;20906;-84
2023/07/26 12:38:12;;;;;;;4.05;1.88;;;20.50;99.90;;;;;;5046284;28;20041;-85
2023/07/26 12:40:38;;;;;;;3.88;1.88;;;20.50;99.90;;;;;;5057551;28;20072;-84
2023/07/26 12:43:27;;;;;;;4.15;1.95;;;20.60;99.90;;;;;;5044400;28;20072;-84